Airfield :
LOGIN :

Register | Disclaimer

   EN    FR    IT 

 










Legend :    VFR   Marginal VFR   IFR   Intensive IFR   Very Intensive IFR
Visi :
Ceiling :
>= 8 km
>= 3000ft
5 to 8 km
1000 to 3000 ft
1500m to 5 km
500 to 1000 ft
800 to 1500m
200 to 500 ft
< 800m
< 200 ft
Symbols :   Thunderstorms  Fog  Heavy snow  Heavy precipitations  Wind > 20 kt
SIGMETs :     Misc.  Thunderstorms  Icing  Turbulence  Mountain Waves  Volcanic Ashes






- Airport Elevation : 297 ft
- IATA code : ODB


LEBA - Córdoba

CURRENT METAR :
  • 241130Z 23011KT 200V260 9999 BKN030 BKN045 12/06 Q1019

EXPIRED METARs :
  • 241100Z 22010KT 190V260 9999 FEW015 BKN030 BKN045 11/06 Q1019
  • 241030Z 23009KT 190V260 9999 SCT015 BKN025 BKN035 11/06 Q1019
  • 241000Z 27006KT 240V300 9999 SCT015 BKN028 10/06 Q1019
  • 240930Z 23008KT 200V270 9999 SCT010 BKN028 09/07 Q1019
  • 240900Z 25007KT 210V280 9999 FEW009 BKN030 09/07 Q1019
  • 240830Z 25007KT 230V300 9999 BKN008 BKN030 08/07 Q1019
  • 240800Z 25006KT 210V290 9999 BKN007 BKN030 08/07 Q1018
  • 240730Z 26005KT 170V300 9999 BKN007 BKN040 08/07 Q1018
  • 240700Z AUTO 27005KT 220V310 9999 OVC007 08/07 Q1018

TAF TAF LEBA
Valid from the 24 at 09:00 until the 25 at 09:00 UTC


240800Z 2409/2509 27010KT CAVOK TX16/2415Z TN08/2507Z
PROB30
TEMPO 2409/2410 4000 BR BKN010
BECMG 2417/2419 VRB03KT
PROB40
TEMPO 2500/2508 4000 BR BKN012



MET'MAP, your aeronautical weather chart ! - Copyright ORBIFLY December 2007 - Disclaimer

ORBIFLY MET'MAP TEAM :

Programming & Development : Alexandra Zaïnal
Original concept : Baudouin d'Aumeries
Technical & hardware support : Manuel Goepfert
Assistance : Marc-Olivier Méhu




SOURCES & CREDITS :

   NOAA